sensor_id;sensor_type;location;lat;lon;timestamp;temperature;humidity
16066;DHT22;8137;48.952;8.970;2024-01-25T00:00:55;9.90;99.90
16066;DHT22;8137;48.952;8.970;2024-01-25T00:03:20;9.90;99.90
16066;DHT22;8137;48.952;8.970;2024-01-25T00:05:47;9.90;99.90
16066;DHT22;8137;48.952;8.970;2024-01-25T00:08:12;9.90;99.90
16066;DHT22;8137;48.952;8.970;2024-01-25T00:10:38;9.90;99.90
16066;DHT22;8137;48.952;8.970;2024-01-25T00:13:04;9.90;99.90
16066;DHT22;8137;48.952;8.970;2024-01-25T00:15:29;9.90;99.90
16066;DHT22;8137;48.952;8.970;2024-01-25T00:17:55;9.90;99.90
16066;DHT22;8137;48.952;8.970;2024-01-25T00:20:22;9.90;99.90
16066;DHT22;8137;48.952;8.970;2024-01-25T00:22:47;9.90;99.90
16066;DHT22;8137;48.952;8.970;2024-01-25T00:25:13;9.90;99.90
16066;DHT22;8137;48.952;8.970;2024-01-25T00:27:39;10.00;99.90
16066;DHT22;8137;48.952;8.970;2024-01-25T00:30:05;10.00;99.90
16066;DHT22;8137;48.952;8.970;2024-01-25T00:32:30;10.00;99.90
16066;DHT22;8137;48.952;8.970;2024-01-25T00:34:56;10.00;99.90
16066;DHT22;8137;48.952;8.970;2024-01-25T00:37:22;10.00;99.90
16066;DHT22;8137;48.952;8.970;2024-01-25T00:39:48;10.00;99.90
16066;DHT22;8137;48.952;8.970;2024-01-25T00:42:16;10.00;99.90
16066;DHT22;8137;48.952;8.970;2024-01-25T00:44:42;9.90;99.90
16066;DHT22;8137;48.952;8.970;2024-01-25T00:47:08;10.00;99.90
16066;DHT22;8137;48.952;8.970;2024-01-25T00:49:35;10.00;99.90
16066;DHT22;8137;48.952;8.970;2024-01-25T00:52:02;10.00;99.90
16066;DHT22;8137;48.952;8.970;2024-01-25T00:54:29;10.00;99.90
16066;DHT22;8137;48.952;8.970;2024-01-25T00:56:55;10.00;99.90
16066;DHT22;8137;48.952;8.970;2024-01-25T00:59:21;10.00;99.90
16066;DHT22;8137;48.952;8.970;2024-01-25T01:01:48;10.00;99.90
16066;DHT22;8137;48.952;8.970;2024-01-25T01:04:14;10.00;99.90
16066;DHT22;8137;48.952;8.970;2024-01-25T01:06:40;10.10;99.90
16066;DHT22;8137;48.952;8.970;2024-01-25T01:09:06;10.00;99.90
16066;DHT22;8137;48.952;8.970;2024-01-25T01:11:33;10.00;99.90
16066;DHT22;8137;48.952;8.970;2024-01-25T01:13:58;10.00;99.90
16066;DHT22;8137;48.952;8.970;2024-01-25T01:16:24;10.00;99.90
16066;DHT22;8137;48.952;8.970;2024-01-25T01:18:49;10.00;99.90
16066;DHT22;8137;48.952;8.970;2024-01-25T01:21:15;10.00;99.90
16066;DHT22;8137;48.952;8.970;2024-01-25T01:23:41;10.00;99.90
16066;DHT22;8137;48.952;8.970;2024-01-25T01:26:07;10.00;99.90
16066;DHT22;8137;48.952;8.970;2024-01-25T01:28:32;10.00;99.90
16066;DHT22;8137;48.952;8.970;2024-01-25T01:30:58;9.90;99.90
16066;DHT22;8137;48.952;8.970;2024-01-25T01:33:24;9.90;99.90
16066;DHT22;8137;48.952;8.970;2024-01-25T01:35:49;10.00;99.90
16066;DHT22;8137;48.952;8.970;2024-01-25T01:38:15;10.00;99.90
16066;DHT22;8137;48.952;8.970;2024-01-25T01:40:40;10.00;99.90
16066;DHT22;8137;48.952;8.970;2024-01-25T01:43:06;10.00;99.90
16066;DHT22;8137;48.952;8.970;2024-01-25T01:45:32;9.90;99.90
16066;DHT22;8137;48.952;8.970;2024-01-25T01:47:58;9.80;99.90
16066;DHT22;8137;48.952;8.970;2024-01-25T01:50:24;9.90;99.90
16066;DHT22;8137;48.952;8.970;2024-01-25T01:52:50;9.90;99.90
16066;DHT22;8137;48.952;8.970;2024-01-25T01:55:17;9.90;99.90
16066;DHT22;8137;48.952;8.970;2024-01-25T01:57:43;9.80;99.90
16066;DHT22;8137;48.952;8.970;2024-01-25T02:00:10;9.90;99.90
16066;DHT22;8137;48.952;8.970;2024-01-25T02:02:36;9.80;99.90
16066;DHT22;8137;48.952;8.970;2024-01-25T02:05:02;9.80;99.90
16066;DHT22;8137;48.952;8.970;2024-01-25T02:07:28;9.80;99.90
16066;DHT22;8137;48.952;8.970;2024-01-25T02:09:55;9.80;99.90
16066;DHT22;8137;48.952;8.970;2024-01-25T02:12:21;9.80;99.90
16066;DHT22;8137;48.952;8.970;2024-01-25T02:14:46;9.70;99.90
16066;DHT22;8137;48.952;8.970;2024-01-25T02:17:12;9.70;99.90
16066;DHT22;8137;48.952;8.970;2024-01-25T02:19:37;9.70;99.90
16066;DHT22;8137;48.952;8.970;2024-01-25T02:22:05;9.70;99.90
16066;DHT22;8137;48.952;8.970;2024-01-25T02:24:31;9.70;99.90
16066;DHT22;8137;48.952;8.970;2024-01-25T02:26:57;9.70;99.90
16066;DHT22;8137;48.952;8.970;2024-01-25T02:29:22;9.70;99.90
16066;DHT22;8137;48.952;8.970;2024-01-25T02:31:48;9.70;99.90
16066;DHT22;8137;48.952;8.970;2024-01-25T02:34:14;9.70;99.90
16066;DHT22;8137;48.952;8.970;2024-01-25T02:36:39;9.70;99.90
16066;DHT22;8137;48.952;8.970;2024-01-25T02:39:05;9.70;99.90
16066;DHT22;8137;48.952;8.970;2024-01-25T02:41:31;9.70;99.90
16066;DHT22;8137;48.952;8.970;2024-01-25T02:43:57;9.70;99.90
16066;DHT22;8137;48.952;8.970;2024-01-25T02:46:23;9.70;99.90
16066;DHT22;8137;48.952;8.970;2024-01-25T02:48:49;9.70;99.90
16066;DHT22;8137;48.952;8.970;2024-01-25T02:51:14;9.70;99.90
16066;DHT22;8137;48.952;8.970;2024-01-25T02:53:40;9.70;99.90
16066;DHT22;8137;48.952;8.970;2024-01-25T02:56:06;9.70;99.90
16066;DHT22;8137;48.952;8.970;2024-01-25T02:58:33;9.70;99.90
16066;DHT22;8137;48.952;8.970;2024-01-25T03:00:58;9.70;99.90
16066;DHT22;8137;48.952;8.970;2024-01-25T03:03:24;9.60;99.90
16066;DHT22;8137;48.952;8.970;2024-01-25T03:05:51;9.60;99.90
16066;DHT22;8137;48.952;8.970;2024-01-25T03:08:17;9.60;99.90
16066;DHT22;8137;48.952;8.970;2024-01-25T03:10:42;9.60;99.90
16066;DHT22;8137;48.952;8.970;2024-01-25T03:13:08;9.60;99.90
16066;DHT22;8137;48.952;8.970;2024-01-25T03:15:33;9.60;99.90
16066;DHT22;8137;48.952;8.970;2024-01-25T03:17:59;9.60;99.90
16066;DHT22;8137;48.952;8.970;2024-01-25T03:20:25;9.60;99.90
16066;DHT22;8137;48.952;8.970;2024-01-25T03:22:50;9.60;99.90
16066;DHT22;8137;48.952;8.970;2024-01-25T03:25:16;9.60;99.90
16066;DHT22;8137;48.952;8.970;2024-01-25T03:27:42;9.60;99.90
16066;DHT22;8137;48.952;8.970;2024-01-25T03:30:08;9.60;99.90
16066;DHT22;8137;48.952;8.970;2024-01-25T03:32:35;9.60;99.90
16066;DHT22;8137;48.952;8.970;2024-01-25T03:35:00;9.60;99.90
16066;DHT22;8137;48.952;8.970;2024-01-25T03:37:26;9.50;99.90
16066;DHT22;8137;48.952;8.970;2024-01-25T03:39:52;9.50;99.90
16066;DHT22;8137;48.952;8.970;2024-01-25T03:42:17;9.50;99.90
16066;DHT22;8137;48.952;8.970;2024-01-25T03:44:43;9.50;99.90
16066;DHT22;8137;48.952;8.970;2024-01-25T03:47:10;9.50;99.90
16066;DHT22;8137;48.952;8.970;2024-01-25T03:49:36;9.50;99.90
16066;DHT22;8137;48.952;8.970;2024-01-25T03:52:03;9.40;99.90
16066;DHT22;8137;48.952;8.970;2024-01-25T03:54:29;9.40;99.90
16066;DHT22;8137;48.952;8.970;2024-01-25T03:56:54;9.40;99.90
16066;DHT22;8137;48.952;8.970;2024-01-25T03:59:20;9.30;99.90
16066;DHT22;8137;48.952;8.970;2024-01-25T04:01:45;9.30;99.90
16066;DHT22;8137;48.952;8.970;2024-01-25T04:04:13;9.30;99.90
16066;DHT22;8137;48.952;8.970;2024-01-25T04:06:44;9.30;99.90
16066;DHT22;8137;48.952;8.970;2024-01-25T04:09:13;9.30;99.90
16066;DHT22;8137;48.952;8.970;2024-01-25T04:11:40;9.30;99.90
16066;DHT22;8137;48.952;8.970;2024-01-25T04:14:06;9.30;99.90
16066;DHT22;8137;48.952;8.970;2024-01-25T04:16:33;9.30;99.90
16066;DHT22;8137;48.952;8.970;2024-01-25T04:18:58;9.30;99.90
16066;DHT22;8137;48.952;8.970;2024-01-25T04:21:24;9.20;99.90
16066;DHT22;8137;48.952;8.970;2024-01-25T04:23:49;9.30;99.90
16066;DHT22;8137;48.952;8.970;2024-01-25T04:26:15;9.20;99.90
16066;DHT22;8137;48.952;8.970;2024-01-25T04:28:44;9.20;99.90
16066;DHT22;8137;48.952;8.970;2024-01-25T04:31:09;9.20;99.90
16066;DHT22;8137;48.952;8.970;2024-01-25T04:33:35;9.20;99.90
16066;DHT22;8137;48.952;8.970;2024-01-25T04:36:01;9.20;99.90
16066;DHT22;8137;48.952;8.970;2024-01-25T04:38:26;9.20;99.90
16066;DHT22;8137;48.952;8.970;2024-01-25T04:40:52;9.20;99.90
16066;DHT22;8137;48.952;8.970;2024-01-25T04:43:17;9.10;99.90
16066;DHT22;8137;48.952;8.970;2024-01-25T04:45:43;9.00;99.90
16066;DHT22;8137;48.952;8.970;2024-01-25T04:48:09;9.00;99.90
16066;DHT22;8137;48.952;8.970;2024-01-25T04:50:34;8.90;99.90
16066;DHT22;8137;48.952;8.970;2024-01-25T04:53:02;8.80;99.90
16066;DHT22;8137;48.952;8.970;2024-01-25T04:55:27;8.70;99.90
16066;DHT22;8137;48.952;8.970;2024-01-25T04:57:53;8.70;99.90
16066;DHT22;8137;48.952;8.970;2024-01-25T05:00:23;8.60;99.90
16066;DHT22;8137;48.952;8.970;2024-01-25T05:02:49;8.60;99.90
16066;DHT22;8137;48.952;8.970;2024-01-25T05:05:15;8.60;99.90
16066;DHT22;8137;48.952;8.970;2024-01-25T05:07:41;8.50;99.90
16066;DHT22;8137;48.952;8.970;2024-01-25T05:10:07;8.40;99.90
16066;DHT22;8137;48.952;8.970;2024-01-25T05:12:33;8.30;99.90
16066;DHT22;8137;48.952;8.970;2024-01-25T05:14:59;8.20;99.90
16066;DHT22;8137;48.952;8.970;2024-01-25T05:17:24;8.10;99.90
16066;DHT22;8137;48.952;8.970;2024-01-25T05:19:50;8.00;99.90
16066;DHT22;8137;48.952;8.970;2024-01-25T05:22:16;8.00;99.90
16066;DHT22;8137;48.952;8.970;2024-01-25T05:24:42;7.90;99.90
16066;DHT22;8137;48.952;8.970;2024-01-25T05:27:08;7.80;99.90
16066;DHT22;8137;48.952;8.970;2024-01-25T05:29:33;7.80;99.90
16066;DHT22;8137;48.952;8.970;2024-01-25T05:31:59;7.80;99.90
16066;DHT22;8137;48.952;8.970;2024-01-25T05:34:25;7.60;99.90
16066;DHT22;8137;48.952;8.970;2024-01-25T05:36:50;7.60;99.90
16066;DHT22;8137;48.952;8.970;2024-01-25T05:39:16;7.60;99.90
16066;DHT22;8137;48.952;8.970;2024-01-25T05:41:42;7.40;99.90
16066;DHT22;8137;48.952;8.970;2024-01-25T05:44:11;7.40;99.90
16066;DHT22;8137;48.952;8.970;2024-01-25T05:46:36;7.40;99.90
16066;DHT22;8137;48.952;8.970;2024-01-25T05:49:02;7.40;99.90
16066;DHT22;8137;48.952;8.970;2024-01-25T05:51:28;7.40;99.90
16066;DHT22;8137;48.952;8.970;2024-01-25T05:53:53;7.30;99.90
16066;DHT22;8137;48.952;8.970;2024-01-25T05:56:19;7.30;99.90
16066;DHT22;8137;48.952;8.970;2024-01-25T05:58:45;7.20;99.90
16066;DHT22;8137;48.952;8.970;2024-01-25T06:01:10;7.20;99.90
16066;DHT22;8137;48.952;8.970;2024-01-25T06:03:36;7.10;99.90
16066;DHT22;8137;48.952;8.970;2024-01-25T06:06:01;7.10;99.90
16066;DHT22;8137;48.952;8.970;2024-01-25T06:08:28;6.90;99.90
16066;DHT22;8137;48.952;8.970;2024-01-25T06:10:53;6.80;99.90
16066;DHT22;8137;48.952;8.970;2024-01-25T06:13:19;6.80;99.90
16066;DHT22;8137;48.952;8.970;2024-01-25T06:15:44;6.80;99.90
16066;DHT22;8137;48.952;8.970;2024-01-25T06:18:10;6.80;99.90
16066;DHT22;8137;48.952;8.970;2024-01-25T06:20:35;6.90;99.90
16066;DHT22;8137;48.952;8.970;2024-01-25T06:23:01;6.90;99.90
16066;DHT22;8137;48.952;8.970;2024-01-25T06:25:27;6.90;99.90
16066;DHT22;8137;48.952;8.970;2024-01-25T06:27:56;6.80;99.90
16066;DHT22;8137;48.952;8.970;2024-01-25T06:30:22;6.80;99.90
16066;DHT22;8137;48.952;8.970;2024-01-25T06:32:48;6.70;99.90
16066;DHT22;8137;48.952;8.970;2024-01-25T06:35:14;6.70;99.90
16066;DHT22;8137;48.952;8.970;2024-01-25T06:37:40;6.60;99.90
16066;DHT22;8137;48.952;8.970;2024-01-25T06:40:07;6.60;99.90
16066;DHT22;8137;48.952;8.970;2024-01-25T06:42:33;6.60;99.90
16066;DHT22;8137;48.952;8.970;2024-01-25T06:44:58;6.70;99.90
16066;DHT22;8137;48.952;8.970;2024-01-25T06:47:24;6.80;99.90
16066;DHT22;8137;48.952;8.970;2024-01-25T06:49:50;6.70;99.90
16066;DHT22;8137;48.952;8.970;2024-01-25T06:52:17;6.70;99.90
16066;DHT22;8137;48.952;8.970;2024-01-25T06:54:43;6.70;99.90
16066;DHT22;8137;48.952;8.970;2024-01-25T06:57:08;6.60;99.90
16066;DHT22;8137;48.952;8.970;2024-01-25T06:59:34;6.50;99.90
16066;DHT22;8137;48.952;8.970;2024-01-25T07:02:00;6.50;99.90
16066;DHT22;8137;48.952;8.970;2024-01-25T07:04:28;6.40;99.90
16066;DHT22;8137;48.952;8.970;2024-01-25T07:06:54;6.30;99.90
16066;DHT22;8137;48.952;8.970;2024-01-25T07:09:19;6.30;99.90
16066;DHT22;8137;48.952;8.970;2024-01-25T07:11:45;6.20;99.90
16066;DHT22;8137;48.952;8.970;2024-01-25T07:14:11;6.20;99.90
16066;DHT22;8137;48.952;8.970;2024-01-25T07:16:36;6.30;99.90
16066;DHT22;8137;48.952;8.970;2024-01-25T07:19:02;6.20;99.90
16066;DHT22;8137;48.952;8.970;2024-01-25T07:21:28;6.20;99.90
16066;DHT22;8137;48.952;8.970;2024-01-25T07:23:59;6.20;99.90
16066;DHT22;8137;48.952;8.970;2024-01-25T07:26:25;6.20;99.90
16066;DHT22;8137;48.952;8.970;2024-01-25T07:28:50;6.30;99.90
16066;DHT22;8137;48.952;8.970;2024-01-25T07:31:19;6.30;99.90
16066;DHT22;8137;48.952;8.970;2024-01-25T07:33:45;6.20;99.90
16066;DHT22;8137;48.952;8.970;2024-01-25T07:36:11;6.30;99.90
16066;DHT22;8137;48.952;8.970;2024-01-25T07:38:36;6.20;99.90
16066;DHT22;8137;48.952;8.970;2024-01-25T07:41:02;6.20;99.90
16066;DHT22;8137;48.952;8.970;2024-01-25T07:43:27;6.10;99.90
16066;DHT22;8137;48.952;8.970;2024-01-25T07:45:53;6.10;99.90
16066;DHT22;8137;48.952;8.970;2024-01-25T07:48:19;6.00;99.90
16066;DHT22;8137;48.952;8.970;2024-01-25T07:50:44;6.10;99.90
16066;DHT22;8137;48.952;8.970;2024-01-25T07:53:10;6.10;99.90
16066;DHT22;8137;48.952;8.970;2024-01-25T07:55:37;6.10;99.90
16066;DHT22;8137;48.952;8.970;2024-01-25T07:58:03;6.10;99.90
16066;DHT22;8137;48.952;8.970;2024-01-25T08:00:28;6.20;99.90
16066;DHT22;8137;48.952;8.970;2024-01-25T08:02:54;6.40;99.90
16066;DHT22;8137;48.952;8.970;2024-01-25T08:05:21;6.70;99.90
16066;DHT22;8137;48.952;8.970;2024-01-25T08:07:47;6.80;99.90
16066;DHT22;8137;48.952;8.970;2024-01-25T08:10:14;6.90;99.90
16066;DHT22;8137;48.952;8.970;2024-01-25T08:12:40;7.10;99.90
16066;DHT22;8137;48.952;8.970;2024-01-25T08:15:09;7.30;99.90
16066;DHT22;8137;48.952;8.970;2024-01-25T08:17:37;7.50;99.90
16066;DHT22;8137;48.952;8.970;2024-01-25T08:20:03;7.70;99.90
16066;DHT22;8137;48.952;8.970;2024-01-25T08:22:31;7.60;99.90
16066;DHT22;8137;48.952;8.970;2024-01-25T08:24:57;7.60;99.90
16066;DHT22;8137;48.952;8.970;2024-01-25T08:27:22;7.50;99.90
16066;DHT22;8137;48.952;8.970;2024-01-25T08:29:48;7.50;99.90
16066;DHT22;8137;48.952;8.970;2024-01-25T08:32:14;7.40;99.90
16066;DHT22;8137;48.952;8.970;2024-01-25T08:34:39;7.40;99.90
16066;DHT22;8137;48.952;8.970;2024-01-25T08:37:05;7.40;99.90
16066;DHT22;8137;48.952;8.970;2024-01-25T08:39:31;7.40;99.90
16066;DHT22;8137;48.952;8.970;2024-01-25T08:41:56;7.50;99.90
16066;DHT22;8137;48.952;8.970;2024-01-25T08:44:25;7.60;99.90
16066;DHT22;8137;48.952;8.970;2024-01-25T08:46:51;7.60;99.90
16066;DHT22;8137;48.952;8.970;2024-01-25T08:49:17;7.70;99.90
16066;DHT22;8137;48.952;8.970;2024-01-25T08:51:42;7.70;99.90
16066;DHT22;8137;48.952;8.970;2024-01-25T08:54:08;7.90;99.90
16066;DHT22;8137;48.952;8.970;2024-01-25T08:56:34;7.90;99.90
16066;DHT22;8137;48.952;8.970;2024-01-25T08:59:00;8.00;99.90
16066;DHT22;8137;48.952;8.970;2024-01-25T09:01:25;8.10;99.90
16066;DHT22;8137;48.952;8.970;2024-01-25T09:03:51;8.20;99.90
16066;DHT22;8137;48.952;8.970;2024-01-25T09:06:17;8.20;99.90
16066;DHT22;8137;48.952;8.970;2024-01-25T09:08:43;8.40;99.90
16066;DHT22;8137;48.952;8.970;2024-01-25T09:11:08;8.50;99.90
16066;DHT22;8137;48.952;8.970;2024-01-25T09:13:34;8.60;99.90
16066;DHT22;8137;48.952;8.970;2024-01-25T09:15:59;8.70;99.90
16066;DHT22;8137;48.952;8.970;2024-01-25T09:18:25;8.80;99.90
16066;DHT22;8137;48.952;8.970;2024-01-25T09:20:51;9.00;99.90
16066;DHT22;8137;48.952;8.970;2024-01-25T09:23:16;9.10;99.90
16066;DHT22;8137;48.952;8.970;2024-01-25T09:25:45;9.10;99.90
16066;DHT22;8137;48.952;8.970;2024-01-25T09:28:11;9.20;99.90
16066;DHT22;8137;48.952;8.970;2024-01-25T09:30:38;9.30;99.90
16066;DHT22;8137;48.952;8.970;2024-01-25T09:33:05;9.40;99.90
16066;DHT22;8137;48.952;8.970;2024-01-25T09:35:31;9.50;99.90
16066;DHT22;8137;48.952;8.970;2024-01-25T09:37:59;9.60;99.90
16066;DHT22;8137;48.952;8.970;2024-01-25T09:40:25;9.80;99.90
16066;DHT22;8137;48.952;8.970;2024-01-25T09:42:52;10.00;99.90
16066;DHT22;8137;48.952;8.970;2024-01-25T09:45:19;10.20;99.90
16066;DHT22;8137;48.952;8.970;2024-01-25T09:47:45;10.40;99.90
16066;DHT22;8137;48.952;8.970;2024-01-25T09:50:11;10.60;99.90
16066;DHT22;8137;48.952;8.970;2024-01-25T09:52:38;10.90;99.90
16066;DHT22;8137;48.952;8.970;2024-01-25T09:55:07;11.00;99.90
16066;DHT22;8137;48.952;8.970;2024-01-25T09:57:35;11.00;99.90
16066;DHT22;8137;48.952;8.970;2024-01-25T10:00:03;10.80;99.90
16066;DHT22;8137;48.952;8.970;2024-01-25T10:02:29;10.60;99.90
16066;DHT22;8137;48.952;8.970;2024-01-25T10:04:54;10.60;99.90
16066;DHT22;8137;48.952;8.970;2024-01-25T10:07:39;10.50;99.90
16066;DHT22;8137;48.952;8.970;2024-01-25T10:10:06;10.50;99.90
16066;DHT22;8137;48.952;8.970;2024-01-25T10:12:32;10.60;99.90
16066;DHT22;8137;48.952;8.970;2024-01-25T10:14:58;10.60;99.90
16066;DHT22;8137;48.952;8.970;2024-01-25T10:17:24;10.80;99.90
16066;DHT22;8137;48.952;8.970;2024-01-25T10:19:50;10.90;99.90
16066;DHT22;8137;48.952;8.970;2024-01-25T10:22:16;10.90;99.90
16066;DHT22;8137;48.952;8.970;2024-01-25T10:24:41;10.90;99.90
16066;DHT22;8137;48.952;8.970;2024-01-25T10:27:07;10.90;99.90
16066;DHT22;8137;48.952;8.970;2024-01-25T10:29:37;10.90;99.90
16066;DHT22;8137;48.952;8.970;2024-01-25T10:32:03;11.10;99.90
16066;DHT22;8137;48.952;8.970;2024-01-25T10:34:30;11.10;99.90
16066;DHT22;8137;48.952;8.970;2024-01-25T10:36:56;11.10;99.90
16066;DHT22;8137;48.952;8.970;2024-01-25T10:39:24;11.10;99.90
16066;DHT22;8137;48.952;8.970;2024-01-25T10:41:50;11.20;99.90
16066;DHT22;8137;48.952;8.970;2024-01-25T10:44:17;11.20;99.90
16066;DHT22;8137;48.952;8.970;2024-01-25T10:46:49;11.30;99.90
16066;DHT22;8137;48.952;8.970;2024-01-25T10:49:15;11.30;99.90
16066;DHT22;8137;48.952;8.970;2024-01-25T10:51:42;11.30;99.90
16066;DHT22;8137;48.952;8.970;2024-01-25T10:54:09;11.20;99.90
16066;DHT22;8137;48.952;8.970;2024-01-25T10:56:35;11.10;99.90
16066;DHT22;8137;48.952;8.970;2024-01-25T10:59:02;11.10;99.90
16066;DHT22;8137;48.952;8.970;2024-01-25T11:01:29;11.30;99.90
16066;DHT22;8137;48.952;8.970;2024-01-25T11:03:55;11.30;99.90
16066;DHT22;8137;48.952;8.970;2024-01-25T11:06:21;11.30;99.90
16066;DHT22;8137;48.952;8.970;2024-01-25T11:08:50;11.30;99.90
16066;DHT22;8137;48.952;8.970;2024-01-25T11:11:18;11.20;99.90
16066;DHT22;8137;48.952;8.970;2024-01-25T11:13:44;11.30;99.90
16066;DHT22;8137;48.952;8.970;2024-01-25T11:16:28;11.30;99.90
16066;DHT22;8137;48.952;8.970;2024-01-25T11:18:56;11.40;99.90
16066;DHT22;8137;48.952;8.970;2024-01-25T11:21:48;11.40;99.90
16066;DHT22;8137;48.952;8.970;2024-01-25T11:24:22;11.60;99.90
16066;DHT22;8137;48.952;8.970;2024-01-25T11:26:49;11.80;99.90
16066;DHT22;8137;48.952;8.970;2024-01-25T11:29:16;11.80;99.90
16066;DHT22;8137;48.952;8.970;2024-01-25T11:31:51;11.60;99.90
16066;DHT22;8137;48.952;8.970;2024-01-25T11:34:17;11.50;99.90
16066;DHT22;8137;48.952;8.970;2024-01-25T11:36:44;11.40;99.90
16066;DHT22;8137;48.952;8.970;2024-01-25T11:39:10;11.40;99.90
16066;DHT22;8137;48.952;8.970;2024-01-25T11:41:36;11.50;99.90
16066;DHT22;8137;48.952;8.970;2024-01-25T11:44:03;11.60;99.90
16066;DHT22;8137;48.952;8.970;2024-01-25T11:46:30;11.60;99.90
16066;DHT22;8137;48.952;8.970;2024-01-25T11:48:56;11.70;99.90
16066;DHT22;8137;48.952;8.970;2024-01-25T11:51:23;11.70;99.90
16066;DHT22;8137;48.952;8.970;2024-01-25T11:53:48;11.70;99.90
16066;DHT22;8137;48.952;8.970;2024-01-25T11:56:17;11.70;99.90
16066;DHT22;8137;48.952;8.970;2024-01-25T11:58:45;11.70;99.90
16066;DHT22;8137;48.952;8.970;2024-01-25T12:01:12;11.60;99.90
16066;DHT22;8137;48.952;8.970;2024-01-25T12:03:39;11.60;99.90
16066;DHT22;8137;48.952;8.970;2024-01-25T12:06:05;11.80;99.90
16066;DHT22;8137;48.952;8.970;2024-01-25T12:08:32;11.70;99.90
16066;DHT22;8137;48.952;8.970;2024-01-25T12:11:11;12.00;99.90
16066;DHT22;8137;48.952;8.970;2024-01-25T12:13:41;11.80;99.90
16066;DHT22;8137;48.952;8.970;2024-01-25T12:16:08;11.80;99.90
16066;DHT22;8137;48.952;8.970;2024-01-25T12:18:34;11.80;99.90
16066;DHT22;8137;48.952;8.970;2024-01-25T12:21:04;11.70;99.90
16066;DHT22;8137;48.952;8.970;2024-01-25T12:23:37;11.80;99.90
16066;DHT22;8137;48.952;8.970;2024-01-25T12:26:10;12.00;99.90
16066;DHT22;8137;48.952;8.970;2024-01-25T12:28:37;12.00;99.90
16066;DHT22;8137;48.952;8.970;2024-01-25T12:31:04;12.10;99.90
16066;DHT22;8137;48.952;8.970;2024-01-25T12:33:31;12.00;99.90
16066;DHT22;8137;48.952;8.970;2024-01-25T12:35:57;11.70;99.90
16066;DHT22;8137;48.952;8.970;2024-01-25T12:38:24;11.80;99.90
16066;DHT22;8137;48.952;8.970;2024-01-25T12:40:51;11.90;99.90
16066;DHT22;8137;48.952;8.970;2024-01-25T12:43:17;12.00;99.90
16066;DHT22;8137;48.952;8.970;2024-01-25T12:45:44;12.30;99.90
16066;DHT22;8137;48.952;8.970;2024-01-25T12:48:10;12.50;99.90
16066;DHT22;8137;48.952;8.970;2024-01-25T12:50:36;12.70;99.90
16066;DHT22;8137;48.952;8.970;2024-01-25T12:53:03;12.80;99.90
16066;DHT22;8137;48.952;8.970;2024-01-25T12:55:29;12.80;99.90
16066;DHT22;8137;48.952;8.970;2024-01-25T12:57:56;12.70;99.90
16066;DHT22;8137;48.952;8.970;2024-01-25T13:00:22;12.60;99.90
16066;DHT22;8137;48.952;8.970;2024-01-25T13:02:48;12.60;99.90
16066;DHT22;8137;48.952;8.970;2024-01-25T13:05:14;12.50;99.90
16066;DHT22;8137;48.952;8.970;2024-01-25T13:07:40;12.40;99.90
16066;DHT22;8137;48.952;8.970;2024-01-25T13:10:07;12.20;99.90
16066;DHT22;8137;48.952;8.970;2024-01-25T13:12:32;12.20;99.90
16066;DHT22;8137;48.952;8.970;2024-01-25T13:14:58;12.20;99.90
16066;DHT22;8137;48.952;8.970;2024-01-25T13:17:24;12.20;99.90
16066;DHT22;8137;48.952;8.970;2024-01-25T13:19:50;12.10;99.90
16066;DHT22;8137;48.952;8.970;2024-01-25T13:22:16;12.10;99.90
16066;DHT22;8137;48.952;8.970;2024-01-25T13:24:46;12.30;99.90
16066;DHT22;8137;48.952;8.970;2024-01-25T13:27:12;12.30;99.90
16066;DHT22;8137;48.952;8.970;2024-01-25T13:29:37;12.30;99.90
16066;DHT22;8137;48.952;8.970;2024-01-25T13:32:03;12.30;99.90
16066;DHT22;8137;48.952;8.970;2024-01-25T13:34:29;12.20;99.90
16066;DHT22;8137;48.952;8.970;2024-01-25T13:36:54;12.10;99.90
16066;DHT22;8137;48.952;8.970;2024-01-25T13:39:20;12.10;99.90
16066;DHT22;8137;48.952;8.970;2024-01-25T13:41:47;12.10;99.90
16066;DHT22;8137;48.952;8.970;2024-01-25T13:44:14;12.20;99.90
16066;DHT22;8137;48.952;8.970;2024-01-25T13:46:40;12.20;99.90
16066;DHT22;8137;48.952;8.970;2024-01-25T13:49:05;12.10;99.90
16066;DHT22;8137;48.952;8.970;2024-01-25T13:51:31;12.00;99.90
16066;DHT22;8137;48.952;8.970;2024-01-25T13:53:57;11.90;99.90
16066;DHT22;8137;48.952;8.970;2024-01-25T13:56:22;11.90;99.90
16066;DHT22;8137;48.952;8.970;2024-01-25T13:58:48;11.90;99.90
16066;DHT22;8137;48.952;8.970;2024-01-25T14:01:14;11.90;99.90
16066;DHT22;8137;48.952;8.970;2024-01-25T14:03:39;12.00;99.90
16066;DHT22;8137;48.952;8.970;2024-01-25T14:06:05;12.10;99.90
16066;DHT22;8137;48.952;8.970;2024-01-25T14:08:37;12.10;99.90
16066;DHT22;8137;48.952;8.970;2024-01-25T14:11:04;12.10;99.90
16066;DHT22;8137;48.952;8.970;2024-01-25T14:13:31;12.10;99.90
16066;DHT22;8137;48.952;8.970;2024-01-25T14:15:57;12.10;99.90
16066;DHT22;8137;48.952;8.970;2024-01-25T14:18:24;12.10;99.90
16066;DHT22;8137;48.952;8.970;2024-01-25T14:20:50;12.10;99.90
16066;DHT22;8137;48.952;8.970;2024-01-25T14:23:16;12.10;99.90
16066;DHT22;8137;48.952;8.970;2024-01-25T14:25:41;11.90;99.90
16066;DHT22;8137;48.952;8.970;2024-01-25T14:28:07;11.90;99.90
16066;DHT22;8137;48.952;8.970;2024-01-25T14:30:32;11.80;99.90
16066;DHT22;8137;48.952;8.970;2024-01-25T14:32:58;11.60;99.90
16066;DHT22;8137;48.952;8.970;2024-01-25T14:35:24;11.50;99.90
16066;DHT22;8137;48.952;8.970;2024-01-25T14:37:54;11.40;99.90
16066;DHT22;8137;48.952;8.970;2024-01-25T14:40:20;11.40;99.90
16066;DHT22;8137;48.952;8.970;2024-01-25T14:42:46;11.30;99.90
16066;DHT22;8137;48.952;8.970;2024-01-25T14:45:11;11.30;99.90
16066;DHT22;8137;48.952;8.970;2024-01-25T14:47:37;11.20;99.90
16066;DHT22;8137;48.952;8.970;2024-01-25T14:50:03;11.10;99.90
16066;DHT22;8137;48.952;8.970;2024-01-25T14:52:28;11.00;99.90
16066;DHT22;8137;48.952;8.970;2024-01-25T14:54:54;10.90;99.90
16066;DHT22;8137;48.952;8.970;2024-01-25T14:57:20;10.80;99.90
16066;DHT22;8137;48.952;8.970;2024-01-25T14:59:45;10.80;99.90
16066;DHT22;8137;48.952;8.970;2024-01-25T15:02:11;10.80;99.90
16066;DHT22;8137;48.952;8.970;2024-01-25T15:04:37;10.70;99.90
16066;DHT22;8137;48.952;8.970;2024-01-25T15:07:03;10.70;99.90
16066;DHT22;8137;48.952;8.970;2024-01-25T15:09:28;10.80;99.90
16066;DHT22;8137;48.952;8.970;2024-01-25T15:11:54;10.80;99.90
16066;DHT22;8137;48.952;8.970;2024-01-25T15:14:20;10.80;99.90
16066;DHT22;8137;48.952;8.970;2024-01-25T15:16:45;10.70;99.90
16066;DHT22;8137;48.952;8.970;2024-01-25T15:19:11;10.70;99.90
16066;DHT22;8137;48.952;8.970;2024-01-25T15:21:37;10.70;99.90
16066;DHT22;8137;48.952;8.970;2024-01-25T15:24:03;10.70;99.90
16066;DHT22;8137;48.952;8.970;2024-01-25T15:26:29;10.70;99.90
16066;DHT22;8137;48.952;8.970;2024-01-25T15:28:54;10.60;99.90
16066;DHT22;8137;48.952;8.970;2024-01-25T15:31:20;10.60;99.90
16066;DHT22;8137;48.952;8.970;2024-01-25T15:33:45;10.60;99.90
16066;DHT22;8137;48.952;8.970;2024-01-25T15:36:11;10.50;99.90
16066;DHT22;8137;48.952;8.970;2024-01-25T15:38:36;10.50;99.90
16066;DHT22;8137;48.952;8.970;2024-01-25T15:41:02;10.40;99.90
16066;DHT22;8137;48.952;8.970;2024-01-25T15:43:28;10.40;99.90
16066;DHT22;8137;48.952;8.970;2024-01-25T15:45:54;10.40;99.90
16066;DHT22;8137;48.952;8.970;2024-01-25T15:48:19;10.30;99.90